Flight Track Log - Related Links

Times and Time Zones

All times are in EST time to prevent confusion due to time zone crossing. See the N589H flight status page for this flight to view local times or setup timezone preferences in your user account.

Time Position Orientation Groundspeed Altitude Reporting Facility
EST Latitude Longitude Course Direction KTS MPH feet Rate Location/Type
Tue 10:54:53 AM 40.8856 -72.6197 68° East 231 266 9,400  Level Boston Center
Tue 10:55:54 AM 40.9114 -72.5361 68° East 257 296 10,800 1,377 Climbing Boston Center
Tue 10:56:55 AM 40.9628 -72.4808 39° Northeast 241 277 12,200 1,426 Climbing Boston Center
Tue 10:57:56 AM 41.0122 -72.4161 45° Northeast 248 285 13,700 1,230 Climbing Boston Center
Tue 10:58:57 AM 41.0636 -72.3469 45° Northeast 261 300 14,700 984 Climbing Boston Center
Tue 10:59:58 AM 41.1203 -72.2694 46° Northeast 288 331 15,700 984 Climbing Boston Center
Tue 11:00:59 AM 41.1794 -72.1892 46° Northeast 304 350 16,700 984 Climbing Boston Center
Tue 11:02:00 AM 41.2392 -72.1064 46° Northeast 310 357 17,700 836 Climbing Boston Center
Tue 11:03:01 AM 41.3061 -72.0044 49° Northeast 322 371 18,400 885 Climbing Boston Center
Tue 11:04:02 AM 41.3547 -71.8961 59° Northeast 322 371 19,500 1,033 Climbing Boston Center
Tue 11:05:03 AM 41.4042 -71.7911 58° Northeast 331 381 20,500 1,033 Climbing Boston Center
Tue 11:06:04 AM 41.4550 -71.6853 57° Northeast 338 389 21,600 1,033 Climbing Boston Center
Tue 11:07:05 AM 41.5064 -71.5800 57° Northeast 339 390 22,600 1,033 Climbing Boston Center
Tue 11:08:06 AM 41.5592 -71.4656 58° Northeast 342 394 23,700 1,033 Climbing Boston Center
Tue 11:09:07 AM 41.6114 -71.3536 58° Northeast 352 405 24,700 984 Climbing Boston Center
Tue 11:10:08 AM 41.6656 -71.2400 57° Northeast 360 414 25,700 1,024 Climbing Boston Center
Tue 11:11:10 AM 41.7208 -71.1236 58° Northeast 368 423 26,800 1,024 Climbing Boston Center
Tue 11:12:11 AM 41.7769 -71.0058 57° Northeast 373 429 27,800 984 Climbing Boston Center
Tue 11:13:12 AM 41.8308 -70.8853 59° Northeast 377 434 28,800 934 Climbing Boston Center
Tue 11:14:13 AM 41.8869 -70.7639 58° Northeast 381 438 29,700 984 Climbing Boston Center
Tue 11:15:14 AM 41.9444 -70.6406 58° Northeast 386 444 30,800 639 Climbing Boston Center
Tue 11:16:15 AM 42.0017 -70.5167 58° Northeast 389 448 31,000 98 Climbing Boston Center
Tue 11:17:16 AM 42.0611 -70.3842 59° Northeast 413 475 31,000  Level Boston Center
Tue 11:18:17 AM 42.1244 -70.2464 58° Northeast 430 495 31,000  Level Boston Center
Tue 11:19:19 AM 42.2017 -70.0778 58° Northeast 440 506 31,000  Level Boston Center
Tue 11:20:20 AM 42.2658 -69.9358 59° Northeast 445 512 31,000  Level Boston Center
Tue 11:21:21 AM 42.3311 -69.7917 58° Northeast 450 518 31,000  Level Boston Center
Tue 11:22:22 AM 42.3953 -69.6478 59° Northeast 449 517 31,000  Level Boston Center
Tue 11:23:23 AM 42.4600 -69.5028 59° Northeast 450 518 31,000  Level Boston Center
Tue 11:24:24 AM 42.5333 -69.3436 58° Northeast 457 526 31,000  Level Boston Center
Tue 11:25:25 AM 42.5983 -69.1986 59° Northeast 452 520 31,000  Level Boston Center
Tue 11:26:26 AM 42.6625 -69.0542 59° Northeast 448 516 31,000  Level Boston Center
Tue 11:27:28 AM 42.7267 -68.9083 59° Northeast 450 518 31,000  Level Boston Center
Tue 11:28:29 AM 42.7908 -68.7603 59° Northeast 454 522 31,000  Level Boston Center
Tue 11:29:30 AM 42.8519 -68.6178 60° Northeast 453 521 31,000  Level Boston Center
Tue 11:30:31 AM 42.9156 -68.4703 59° Northeast 453 521 31,000  Level Boston Center
Tue 11:31:32 AM 42.9789 -68.3222 60° Northeast 453 521 31,000  Level Boston Center
Tue 11:32:33 AM 43.0544 -68.1444 60° Northeast 452 520 31,000  Level Boston Center
Tue 11:33:34 AM 43.1167 -67.9969 60° Northeast 450 518 31,000  Level Boston Center
Tue 11:34:36 AM 43.1800 -67.8489 60° Northeast 452 520 31,000  Level Boston Center
Tue 11:35:37 AM 43.2414 -67.6994 61° Northeast 451 519 31,000  Level Boston Center
Tue 11:36:38 AM 43.3022 -67.5511 61° Northeast 450 518 31,000  Level Boston Center
Tue 11:37:39 AM 43.3644 -67.4017 60° Northeast 452 520 31,000  Level Boston Center
Tue 11:38:40 AM 43.4267 -67.2514 60° Northeast 454 522 31,000  Level Boston Center
Tue 11:39:41 AM 43.4886 -67.1003 60° Northeast 455 524 31,000  Level Boston Center
Tue 11:40:58 AM 43.5500 -66.8667 70° East 460 529 31,000  Level Moncton Center
Tue 11:41:58 AM 43.6333 -66.7333 49° Northeast 460 529 31,000  Level Moncton Center
Tue 11:42:58 AM 43.6833 -66.5667 67° East 450 518 31,000  Level Moncton Center
Tue 11:43:58 AM 43.7500 -66.4167 58° Northeast 450 518 31,000  Level Moncton Center
Tue 11:44:58 AM 43.8000 -66.2667 65° Northeast 450 518 31,000  Level Moncton Center
Tue 11:45:58 AM 43.8667 -66.1167 58° Northeast 450 518 31,000  Level Moncton Center
Tue 11:46:58 AM 43.9333 -65.9500 61° Northeast 450 518 31,000  Level Moncton Center
Tue 11:47:58 AM 44.0000 -65.7833 61° Northeast 450 518 31,000  Level Moncton Center
Tue 11:48:58 AM 44.0500 -65.6500 62° Northeast 450 518 31,000 -200 Level Moncton Center
Tue 11:49:58 AM 44.1000 -65.5167 62° Northeast 450 518 30,600 -700 Descending Moncton Center
Tue 11:50:58 AM 44.1667 -65.3500 61° Northeast 450 518 29,600 -950 Descending Moncton Center
Tue 11:51:58 AM 44.2167 -65.1833 67° East 450 518 28,700 -1,000 Descending Moncton Center
Tue 11:52:58 AM 44.2833 -65.0500 55° Northeast 450 518 27,600 -1,250 Descending Moncton Center
Tue 11:53:58 AM 44.3333 -64.8833 67° East 440 506 26,200 -1,500 Descending Moncton Center
Tue 11:54:58 AM 44.4000 -64.7500 55° Northeast 430 495 24,600 -1,500 Descending Moncton Center
Tue 11:55:58 AM 44.4500 -64.6000 65° Northeast 420 483 23,200 -1,500 Descending Moncton Center
Tue 11:56:58 AM 44.5000 -64.4500 65° Northeast 420 483 21,600 -1,550 Descending Moncton Center
Tue 11:57:58 AM 44.5500 -64.3333 59° Northeast 400 460 20,100 -1,600 Descending Moncton Center
Tue 11:58:58 AM 44.6000 -64.1667 67° East 400 460 18,400 -2,000 Descending Moncton Center
Tue 11:59:58 AM 44.6333 -64.0500 68° East 370 426 16,100 -3,000 Descending Moncton Center
Tue 12:00:58 PM 44.6500 -63.9000 81° East 340 391 12,400 -3,500 Descending Moncton Center
Tue 12:01:58 PM 44.6667 -63.7833 79° East 320 368 9,100 -3,400 Descending Moncton Center
Tue 12:02:58 PM 44.6833 -63.6667 79° East 290 334 5,600 -2,650 Descending Moncton Center
Tue 12:03:58 PM 44.7333 -63.6167 35° Northeast 220 253 3,800 -1,550 Descending Moncton Center
Tue 12:04:58 PM 44.7833 -63.5667 35° Northeast 200 230 2,500 -1,150 Descending Moncton Center
Tue 12:05:58 PM 44.8167 -63.5500 20° North 170 196 1,500 -950 Descending Moncton Center
Tue 12:06:58 PM 44.8500 -63.5000 47° Northeast 140 161 600 -317 Descending Moncton Center
Tue 12:09:07 PM 44.8667 -63.5000 360° North 10 12 500 -47 Descending Moncton Center

Login

Don't have an account? Register now (free) for customized features, flight alerts, and more!